createdAt,value
2018-08-25T00:02:16.914Z,100778.59
2018-08-25T00:04:46.960Z,100773.74
2018-08-25T00:07:16.810Z,100774.76
2018-08-25T00:09:46.755Z,100764.78
2018-08-25T00:12:16.772Z,100759.80
2018-08-25T00:14:46.686Z,100760.52
2018-08-25T00:17:16.701Z,100748.06
2018-08-25T00:19:46.631Z,100748.47
2018-08-25T00:22:16.484Z,100746.41
2018-08-25T00:24:46.452Z,100731.27
2018-08-25T00:27:16.238Z,100735.00
2018-08-25T00:29:46.130Z,100722.28
2018-08-25T00:32:16.003Z,100722.81
2018-08-25T00:34:45.813Z,100718.53
2018-08-25T00:37:15.936Z,100718.60
2018-08-25T00:39:45.700Z,100718.60
2018-08-25T00:42:15.642Z,100716.80
2018-08-25T00:44:45.700Z,100709.48
2018-08-25T00:47:15.633Z,100706.69
2018-08-25T00:49:45.468Z,100701.63
2018-08-25T00:52:15.364Z,100703.09
2018-08-25T00:54:45.304Z,100692.89
2018-08-25T00:57:15.270Z,100693.91
2018-08-25T00:59:45.366Z,100693.09
2018-08-25T01:02:15.368Z,100695.70
2018-08-25T01:04:45.369Z,100700.40
2018-08-25T01:07:15.182Z,100695.44
2018-08-25T01:09:45.124Z,100686.94
2018-08-25T01:12:15.142Z,100684.13
2018-08-25T01:14:45.077Z,100677.38
2018-08-25T01:17:15.309Z,100670.87
2018-08-25T01:19:45.441Z,100665.53
2018-08-25T01:22:15.343Z,100662.59
2018-08-25T01:24:45.680Z,100658.90
2018-08-25T01:27:15.640Z,100662.72
2018-08-25T01:29:45.813Z,100658.13
2018-08-25T01:32:15.768Z,100653.76
2018-08-25T01:34:46.072Z,100650.73
2018-08-25T01:37:16.096Z,100641.18
2018-08-25T01:39:46.383Z,100644.30
2018-08-25T01:42:16.283Z,100641.18
2018-08-25T01:44:46.375Z,100633.90
2018-08-25T01:47:16.613Z,100634.80
2018-08-25T01:49:46.798Z,100627.50
2018-08-25T01:52:16.750Z,100628.19
2018-08-25T01:54:47.240Z,100617.16
2018-08-25T01:57:17.238Z,100611.82
2018-08-25T01:59:47.089Z,100610.93
2018-08-25T02:02:17.223Z,100610.43
2018-08-25T02:04:47.239Z,100604.41
2018-08-25T02:07:17.107Z,100599.15
2018-08-25T02:09:47.373Z,100602.73
2018-08-25T02:12:17.807Z,100605.67
2018-08-25T02:14:47.705Z,100595.75
2018-08-25T02:17:17.656Z,100598.56
2018-08-25T02:19:47.925Z,100599.36
2018-08-25T02:22:18.035Z,100599.91
2018-08-25T02:24:47.855Z,100605.05
2018-08-25T02:27:18.233Z,100600.75
2018-08-25T02:29:48.458Z,100610.73
2018-08-25T02:32:18.264Z,100612.21
2018-08-25T02:34:48.149Z,100611.55
2018-08-25T02:37:18.148Z,100616.75
2018-08-25T02:39:48.213Z,100620.59
2018-08-25T02:42:18.463Z,100614.28
2018-08-25T02:44:48.248Z,100619.47
2018-08-25T02:47:18.159Z,100623.98
2018-08-25T02:49:48.144Z,100631.94
2018-08-25T02:52:18.519Z,100639.96
2018-08-25T02:54:48.415Z,100635.09
2018-08-25T02:57:18.388Z,100622.46
2018-08-25T02:59:48.616Z,100622.12
2018-08-25T03:02:18.894Z,100618.66
2018-08-25T03:04:48.849Z,100620.43
2018-08-25T03:07:18.669Z,100624.16
2018-08-25T03:09:48.687Z,100612.72
2018-08-25T03:12:18.694Z,100607.79
2018-08-25T03:14:48.727Z,100605.70
2018-08-25T03:17:18.690Z,100600.46
2018-08-25T03:19:48.596Z,100605.58
2018-08-25T03:22:18.565Z,100595.86
2018-08-25T03:24:48.434Z,100590.12
2018-08-25T03:27:18.240Z,100586.39
2018-08-25T03:29:48.044Z,100588.41
2018-08-25T03:32:17.842Z,100579.48
2018-08-25T03:34:47.673Z,100572.84
2018-08-25T03:37:17.572Z,100580.89
2018-08-25T03:39:47.408Z,100573.36
2018-08-25T03:42:17.452Z,100572.27
2018-08-25T03:44:47.657Z,100571.09
2018-08-25T03:47:17.612Z,100568.44
2018-08-25T03:49:47.479Z,100565.91
2018-08-25T03:52:17.280Z,100563.89
2018-08-25T03:54:47.364Z,100562.67
2018-08-25T03:57:17.265Z,100564.88
2018-08-25T03:59:47.178Z,100562.20
2018-08-25T04:02:16.993Z,100560.81
2018-08-25T04:04:47.158Z,100569.58
2018-08-25T04:07:17.073Z,100581.84
2018-08-25T04:09:47.112Z,100567.42
2018-08-25T04:12:25.192Z,100571.76
2018-08-25T04:14:55.422Z,100575.00
2018-08-25T04:17:25.504Z,100569.55
2018-08-25T04:19:55.614Z,100572.09
2018-08-25T04:22:25.580Z,100575.11
2018-08-25T04:24:55.552Z,100570.44
2018-08-25T04:27:25.534Z,100577.88
2018-08-25T04:29:55.415Z,100581.59
2018-08-25T04:32:25.384Z,100577.58
2018-08-25T04:34:55.204Z,100579.56
2018-08-25T04:37:25.095Z,100581.73
2018-08-25T04:39:55.078Z,100583.02
2018-08-25T04:42:24.917Z,100576.53
2018-08-25T04:44:54.806Z,100579.76
2018-08-25T04:47:24.713Z,100584.64
2018-08-25T04:49:54.548Z,100584.42
2018-08-25T04:52:24.507Z,100586.56
2018-08-25T04:54:54.391Z,100593.42
2018-08-25T04:57:24.334Z,100594.52
2018-08-25T04:59:54.119Z,100598.62
2018-08-25T05:02:23.990Z,100596.17
2018-08-25T05:04:53.915Z,100599.23
2018-08-25T05:07:23.740Z,100603.67
2018-08-25T05:09:53.661Z,100604.31
2018-08-25T05:12:23.529Z,100612.03
2018-08-25T05:14:53.426Z,100603.89
2018-08-25T05:17:23.568Z,100599.23
2018-08-25T05:19:53.564Z,100605.72
2018-08-25T05:22:23.393Z,100612.10
2018-08-25T05:24:53.494Z,100609.03
2018-08-25T05:27:23.428Z,100604.76
2018-08-25T05:29:53.275Z,100606.36
2018-08-25T05:32:23.109Z,100610.38
2018-08-25T05:34:53.166Z,100612.65
2018-08-25T05:37:22.989Z,100612.52
2018-08-25T05:39:52.970Z,100608.21
2018-08-25T05:42:23.114Z,100610.31
2018-08-25T05:44:53.165Z,100613.00
2018-08-25T05:47:23.104Z,100608.11
2018-08-25T05:49:53.237Z,100620.34
2018-08-25T05:52:23.133Z,100617.13
2018-08-25T05:54:54.081Z,100615.03
2018-08-25T05:57:24.223Z,100618.17
2018-08-25T05:59:54.299Z,100628.09
2018-08-25T06:02:24.481Z,100634.36
2018-08-25T06:04:54.952Z,100642.22
2018-08-25T06:07:25.480Z,100651.53
2018-08-25T06:09:55.820Z,100647.89
2018-08-25T06:12:25.886Z,100642.61
2018-08-25T06:14:55.990Z,100652.02
2018-08-25T06:17:26.257Z,100655.67
2018-08-25T06:19:56.293Z,100650.47
2018-08-25T06:22:26.606Z,100663.33
2018-08-25T06:24:56.985Z,100655.03
2018-08-25T06:27:27.098Z,100661.80
2018-08-25T06:29:57.281Z,100662.19
2018-08-25T06:32:27.513Z,100657.41
2018-08-25T06:34:57.877Z,100660.06
2018-08-25T06:37:28.187Z,100667.59
2018-08-25T06:39:58.225Z,100663.87
2018-08-25T06:42:28.512Z,100653.95
2018-08-25T06:44:58.740Z,100657.19
2018-08-25T06:47:29.403Z,100648.83
2018-08-25T06:49:59.472Z,100655.64
2018-08-25T06:52:29.826Z,100652.38
2018-08-25T06:54:59.946Z,100653.63
2018-08-25T06:57:30.069Z,100658.23
2018-08-25T07:00:00.396Z,100668.00
2018-08-25T07:02:30.699Z,100662.42
2018-08-25T07:05:00.755Z,100664.48
2018-08-25T07:07:30.893Z,100666.97
2018-08-25T07:10:01.022Z,100657.09
2018-08-25T07:12:31.256Z,100663.25
2018-08-25T07:17:26.789Z,100669.64
2018-08-25T07:19:56.699Z,100666.22
2018-08-25T07:22:29.700Z,100677.31
2018-08-25T07:24:59.710Z,100675.08
2018-08-25T07:27:29.946Z,100679.27
2018-08-25T07:29:59.935Z,100682.82
2018-08-25T07:32:31.369Z,100690.42
2018-08-25T07:35:01.833Z,100686.17
2018-08-25T07:37:32.533Z,100687.55
2018-08-25T07:40:02.707Z,100690.42
2018-08-25T07:42:32.773Z,100687.37
2018-08-25T07:45:02.891Z,100691.66
2018-08-25T07:47:32.806Z,100690.00
2018-08-25T07:50:02.953Z,100693.70
2018-08-25T07:52:35.589Z,100694.22
2018-08-25T07:55:07.827Z,100693.35
2018-08-25T07:57:37.987Z,100698.63
2018-08-25T08:00:10.566Z,100689.76
2018-08-25T08:02:40.645Z,100704.47
2018-08-25T08:05:10.869Z,100703.19
2018-08-25T08:07:40.803Z,100708.14
2018-08-25T08:10:11.527Z,100710.39
2018-08-25T08:12:41.512Z,100710.45
2018-08-25T08:15:11.903Z,100715.93
2018-08-25T08:17:41.875Z,100718.04
2018-08-25T08:20:14.262Z,100727.42
2018-08-25T08:22:44.289Z,100732.85
2018-08-25T08:25:14.566Z,100738.09
2018-08-25T08:27:44.677Z,100743.65
2018-08-25T08:30:14.452Z,100742.51
2018-08-25T08:32:44.613Z,100742.81
2018-08-25T08:35:14.473Z,100750.25
2018-08-25T08:37:44.514Z,100751.43
2018-08-25T08:40:14.518Z,100760.94
2018-08-25T08:42:45.064Z,100761.54
2018-08-25T08:45:15.247Z,100765.59
2018-08-25T08:47:46.677Z,100767.28
2018-08-25T08:50:16.969Z,100775.27
2018-08-25T08:52:46.933Z,100773.27
2018-08-25T08:55:16.845Z,100779.75
2018-08-25T08:57:49.089Z,100772.31
2018-08-25T09:00:19.116Z,100775.66
2018-08-25T09:02:49.352Z,100781.34
2018-08-25T09:05:19.448Z,100782.06
2018-08-25T09:07:49.253Z,100784.21
2018-08-25T09:10:19.401Z,100787.33
2018-08-25T09:12:54.391Z,100790.29
2018-08-25T09:15:24.591Z,100796.34
2018-08-25T09:17:56.685Z,100801.73
2018-08-25T09:20:26.808Z,100803.26
2018-08-25T09:22:57.021Z,100806.87
2018-08-25T09:25:27.102Z,100798.70
2018-08-25T09:27:59.367Z,100803.84
2018-08-25T09:30:29.399Z,100809.66
2018-08-25T09:33:03.045Z,100812.98
2018-08-25T09:35:32.998Z,100803.55
2018-08-25T09:38:03.035Z,100818.38
2018-08-25T09:40:33.004Z,100820.83
2018-08-25T09:43:03.150Z,100822.12
2018-08-25T09:45:33.821Z,100817.19
2018-08-25T09:48:03.667Z,100814.18
2018-08-25T09:50:36.160Z,100816.77
2018-08-25T09:53:08.112Z,100818.35
2018-08-25T09:55:38.392Z,100819.45
2018-08-25T09:58:10.615Z,100816.89
2018-08-25T10:00:41.123Z,100821.91
2018-08-25T10:03:11.683Z,100820.53
2018-08-25T10:05:42.082Z,100827.70
2018-08-25T10:08:12.500Z,100830.06
2018-08-25T10:10:42.767Z,100831.59
2018-08-25T10:13:13.004Z,100828.89
2018-08-25T10:15:43.156Z,100822.71
2018-08-25T10:18:13.260Z,100830.80
2018-08-25T10:20:43.727Z,100826.81
2018-08-25T10:23:13.917Z,100824.61
2018-08-25T10:25:44.214Z,100825.92
2018-08-25T10:28:14.532Z,100823.14
2018-08-25T10:30:45.167Z,100826.81
2018-08-25T10:33:16.277Z,100818.72
2018-08-25T10:35:46.734Z,100827.06
2018-08-25T10:38:18.005Z,100834.85
2018-08-25T10:40:48.011Z,100828.07
2018-08-25T10:43:18.707Z,100826.07
2018-08-25T10:45:49.015Z,100835.02
2018-08-25T10:48:19.526Z,100832.11
2018-08-25T10:50:50.103Z,100838.39
2018-08-25T10:53:20.138Z,100846.25
2018-08-25T10:55:50.472Z,100847.58
2018-08-25T10:58:20.983Z,100844.00
2018-08-25T11:00:57.917Z,100845.59
2018-08-25T11:03:28.287Z,100846.06
2018-08-25T11:05:58.420Z,100846.56
2018-08-25T11:08:28.820Z,100847.48
2018-08-25T11:10:59.218Z,100846.34
2018-08-25T11:13:29.552Z,100852.33
2018-08-25T11:16:00.066Z,100836.49
2018-08-25T11:18:30.531Z,100845.38
2018-08-25T11:21:01.343Z,100841.92
2018-08-25T11:23:31.693Z,100837.64
2018-08-25T11:26:02.483Z,100845.05
2018-08-25T11:28:32.724Z,100846.99
2018-08-25T11:31:02.918Z,100847.56
2018-08-25T11:33:33.092Z,100847.08
2018-08-25T11:36:03.705Z,100850.08
2018-08-25T11:38:33.932Z,100853.09
2018-08-25T11:41:03.853Z,100854.44
2018-08-25T11:43:33.971Z,100854.11
2018-08-25T11:46:04.453Z,100854.35
2018-08-25T11:48:34.733Z,100857.84
2018-08-25T11:51:05.518Z,100862.25
2018-08-25T11:53:36.304Z,100863.12
2018-08-25T11:56:06.548Z,100862.20
2018-08-25T11:58:37.043Z,100868.33
2018-08-25T12:01:07.656Z,100864.39
2018-08-25T12:03:37.899Z,100866.67
2018-08-25T12:06:08.320Z,100873.23
2018-08-25T12:08:38.743Z,100864.47
2018-08-25T12:11:08.756Z,100872.59
2018-08-25T12:13:39.074Z,100863.07
2018-08-25T12:16:09.816Z,100862.64
2018-08-25T12:18:40.152Z,100860.95
2018-08-25T12:21:10.211Z,100867.47
2018-08-25T12:23:40.386Z,100870.95
2018-08-25T12:26:11.864Z,100881.75
2018-08-25T12:28:42.183Z,100880.97
2018-08-25T12:31:12.177Z,100890.69
2018-08-25T12:33:42.367Z,100890.63
2018-08-25T12:36:14.315Z,100893.73
2018-08-25T12:38:44.734Z,100893.27
2018-08-25T12:41:15.194Z,100893.86
2018-08-25T12:43:45.656Z,100892.09
2018-08-25T12:46:16.075Z,100892.89
2018-08-25T12:48:46.392Z,100892.22
2018-08-25T12:51:16.946Z,100887.95
2018-08-25T12:53:47.200Z,100888.23
2018-08-25T12:56:17.680Z,100888.95
2018-08-25T12:58:47.743Z,100884.69
2018-08-25T13:01:18.378Z,100885.09
2018-08-25T13:03:48.365Z,100882.69
2018-08-25T13:06:18.767Z,100873.39
2018-08-25T13:08:49.070Z,100877.56
2018-08-25T13:11:19.442Z,100875.90
2018-08-25T13:13:49.659Z,100875.53
2018-08-25T13:16:20.251Z,100880.36
2018-08-25T13:18:50.501Z,100868.55
2018-08-25T13:21:20.817Z,100869.55
2018-08-25T13:23:51.306Z,100874.41
2018-08-25T13:26:21.388Z,100871.31
2018-08-25T13:28:51.989Z,100876.65
2018-08-25T13:31:22.271Z,100880.98
2018-08-25T13:33:52.349Z,100880.33
2018-08-25T13:36:22.680Z,100881.25
2018-08-25T13:38:52.584Z,100886.52
2018-08-25T13:41:22.872Z,100879.86
2018-08-25T13:43:52.886Z,100877.30
2018-08-25T13:46:23.198Z,100889.50
2018-08-25T13:48:53.169Z,100916.50
2018-08-25T13:51:23.128Z,100916.56
2018-08-25T13:53:53.037Z,100924.17
2018-08-25T13:56:23.146Z,100927.09
2018-08-25T13:58:53.130Z,100922.94
2018-08-25T14:01:23.026Z,100928.20
2018-08-25T14:03:52.938Z,100944.72
2018-08-25T14:06:22.921Z,100946.13
2018-08-25T14:08:52.892Z,100939.21
2018-08-25T14:11:22.943Z,100947.14
2018-08-25T14:13:53.067Z,100943.83
2018-08-25T14:16:23.162Z,100940.41
2018-08-25T14:18:53.415Z,100943.94
2018-08-25T14:21:23.527Z,100944.25
2018-08-25T14:23:53.468Z,100944.79
2018-08-25T14:26:23.511Z,100947.76
2018-08-25T14:28:53.729Z,100952.53
2018-08-25T14:31:23.854Z,100953.45
2018-08-25T14:33:54.164Z,100957.06
2018-08-25T14:36:24.396Z,100960.73
2018-08-25T14:38:55.135Z,100965.38
2018-08-25T14:41:25.509Z,100963.33
2018-08-25T14:43:56.373Z,100966.76
2018-08-25T14:46:26.608Z,100967.31
2018-08-25T14:48:56.723Z,100977.56
2018-08-25T14:51:27.393Z,100975.33
2018-08-25T14:53:57.549Z,100971.05
2018-08-25T14:56:28.547Z,100972.61
2018-08-25T14:58:59.059Z,100975.38
2018-08-25T15:01:29.363Z,100982.23
2018-08-25T15:03:59.681Z,100987.91
2018-08-25T15:06:29.673Z,100983.33
2018-08-25T15:08:59.796Z,100974.33
2018-08-25T15:11:29.827Z,100986.96
2018-08-25T15:13:59.706Z,100989.25
2018-08-25T15:16:29.784Z,100992.91
2018-08-25T15:18:59.742Z,100995.85
2018-08-25T15:21:29.882Z,101002.17
2018-08-25T15:23:59.824Z,100993.06
2018-08-25T15:26:29.976Z,101015.08
2018-08-25T15:29:00.058Z,101013.94
2018-08-25T15:31:30.082Z,101028.28
2018-08-25T15:34:00.212Z,101029.81
2018-08-25T15:36:30.112Z,101025.84
2018-08-25T15:38:59.997Z,101030.75
2018-08-25T15:41:30.207Z,101030.55
2018-08-25T15:44:00.207Z,101033.02
2018-08-25T15:46:30.357Z,101035.98
2018-08-25T15:49:00.257Z,101044.63
2018-08-25T15:51:30.435Z,101037.89
2018-08-25T15:54:00.601Z,101035.60
2018-08-25T15:56:30.737Z,101043.87
2018-08-25T15:59:00.658Z,101053.10
2018-08-25T16:01:31.355Z,101053.23
2018-08-25T16:04:01.663Z,101056.27
2018-08-25T16:06:32.133Z,101062.08
2018-08-25T16:09:02.587Z,101056.41
2018-08-25T16:11:32.792Z,101061.40
2018-08-25T16:14:02.900Z,101059.38
2018-08-25T16:16:33.502Z,101074.51
2018-08-25T16:19:03.708Z,101075.75
2018-08-25T16:21:34.388Z,101072.03
2018-08-25T16:24:04.407Z,101073.44
2018-08-25T16:26:34.443Z,101080.20
2018-08-25T16:29:04.468Z,101070.84
2018-08-25T16:31:34.488Z,101070.55
2018-08-25T16:34:04.663Z,101071.67
2018-08-25T16:36:34.555Z,101072.88
2018-08-25T16:39:05.590Z,101073.56
2018-08-25T16:41:35.498Z,101072.77
2018-08-25T16:44:05.373Z,101073.61
2018-08-25T16:46:35.347Z,101078.45
2018-08-25T16:49:05.580Z,101079.42
2018-08-25T16:51:35.666Z,101078.30
2018-08-25T16:54:06.600Z,101085.61
2018-08-25T16:56:36.547Z,101089.61
2018-08-25T16:59:07.287Z,101089.21
2018-08-25T17:01:37.412Z,101095.95
2018-08-25T17:04:08.173Z,101102.41
2018-08-25T17:06:38.207Z,101102.66
2018-08-25T17:09:11.560Z,101100.92
2018-08-25T17:11:42.973Z,101098.89
2018-08-25T17:14:13.716Z,101102.19
2018-08-25T17:16:45.106Z,101103.85
2018-08-25T17:19:18.281Z,101110.10
2018-08-25T17:21:49.732Z,101107.67
2018-08-25T17:24:19.731Z,101110.53
2018-08-25T17:26:49.801Z,101130.02
2018-08-25T17:29:19.815Z,101121.63
2018-08-25T17:31:49.861Z,101132.06
2018-08-25T17:34:19.892Z,101136.81
2018-08-25T17:36:50.050Z,101138.63
2018-08-25T17:39:20.014Z,101133.14
2018-08-25T17:41:49.907Z,101139.79
2018-08-25T17:44:19.889Z,101147.56
2018-08-25T17:46:50.126Z,101142.72
2018-08-25T17:49:20.468Z,101148.43
2018-08-25T17:51:50.368Z,101162.55
2018-08-25T17:54:20.276Z,101157.16
2018-08-25T17:56:50.240Z,101162.77
2018-08-25T17:59:20.346Z,101158.83
2018-08-25T18:01:50.200Z,101160.40
2018-08-25T18:04:20.175Z,101170.91
2018-08-25T18:06:50.423Z,101176.05
2018-08-25T18:09:21.161Z,101179.98
2018-08-25T18:11:51.656Z,101177.95
2018-08-25T18:14:21.897Z,101190.05
2018-08-25T18:16:51.983Z,101191.30
2018-08-25T18:19:22.490Z,101195.72
2018-08-25T18:21:52.750Z,101203.81
2018-08-25T18:24:23.503Z,101210.18
2018-08-25T18:26:54.289Z,101230.13
2018-08-25T18:29:24.606Z,101216.30
2018-08-25T18:31:55.488Z,101225.88
2018-08-25T18:34:26.043Z,101230.16
2018-08-25T18:36:56.837Z,101229.73
2018-08-25T18:39:27.042Z,101231.20
2018-08-25T18:41:57.436Z,101238.08
2018-08-25T18:44:28.010Z,101241.55
2018-08-25T18:46:58.665Z,101239.28
2018-08-25T18:49:29.640Z,101240.70
2018-08-25T18:52:00.076Z,101237.48
2018-08-25T18:54:30.525Z,101241.50
2018-08-25T18:57:00.862Z,101237.44
2018-08-25T18:59:31.315Z,101253.22
2018-08-25T19:02:02.369Z,101255.95
2018-08-25T19:04:32.878Z,101262.66
2018-08-25T19:07:03.142Z,101263.61
2018-08-25T19:09:33.480Z,101263.80
2018-08-25T19:12:04.106Z,101263.61
2018-08-25T19:14:35.628Z,101263.05
2018-08-25T19:17:06.334Z,101263.05
2018-08-25T19:19:37.623Z,101268.52
2018-08-25T19:22:07.969Z,101261.42
2018-08-25T19:24:38.694Z,101271.13
2018-08-25T19:27:09.370Z,101265.62
2018-08-25T19:29:39.994Z,101276.30
2018-08-25T19:32:10.771Z,101272.77
2018-08-25T19:34:41.653Z,101271.80
2018-08-25T19:37:12.294Z,101275.02
2018-08-25T19:39:42.929Z,101282.55
2018-08-25T19:42:13.562Z,101290.80
2018-08-25T19:44:44.174Z,101288.36
2018-08-25T19:47:14.785Z,101287.33
2018-08-25T19:49:45.646Z,101293.63
2018-08-25T19:52:16.160Z,101295.56
2018-08-25T19:54:46.834Z,101292.66
2018-08-25T19:57:17.415Z,101292.12
2018-08-25T19:59:47.787Z,101300.74
2018-08-25T20:02:19.284Z,101307.87
2018-08-25T20:04:50.017Z,101308.51
2018-08-25T20:07:20.179Z,101308.68
2018-08-25T20:09:50.685Z,101310.26
2018-08-25T20:12:21.371Z,101309.48
2018-08-25T20:14:52.515Z,101316.72
2018-08-25T20:17:22.981Z,101315.22
2018-08-25T20:19:53.890Z,101313.69
2018-08-25T20:22:24.333Z,101321.27
2018-08-25T20:24:54.792Z,101324.65
2018-08-25T20:27:25.470Z,101325.55
2018-08-25T20:29:55.822Z,101323.41
2018-08-25T20:32:25.978Z,101325.55
2018-08-25T20:34:56.000Z,101322.50
2018-08-25T20:37:26.564Z,101321.66
2018-08-25T20:39:57.298Z,101327.83
2018-08-25T20:42:27.757Z,101318.98
2018-08-25T20:44:57.696Z,101328.91
2018-08-25T20:47:27.686Z,101328.81
2018-08-25T20:49:58.282Z,101333.30
2018-08-25T20:52:28.374Z,101326.49
2018-08-25T20:54:58.537Z,101323.14
2018-08-25T20:57:28.738Z,101322.50
2018-08-25T20:59:58.623Z,101318.75
2018-08-25T21:02:28.480Z,101320.39
2018-08-25T21:04:58.517Z,101323.31
2018-08-25T21:07:28.941Z,101318.37
2018-08-25T21:09:59.175Z,101316.60
2018-08-25T21:12:29.135Z,101311.97
2018-08-25T21:14:59.111Z,101321.59
2018-08-25T21:17:29.312Z,101315.69
2018-08-25T21:19:59.398Z,101316.23
2018-08-25T21:22:29.224Z,101306.67
2018-08-25T21:24:59.232Z,101316.37
2018-08-25T21:27:29.143Z,101308.66
2018-08-25T21:29:59.481Z,101305.57
2018-08-25T21:32:29.333Z,101312.61
2018-08-25T21:34:59.534Z,101311.97
2018-08-25T21:37:29.555Z,101309.80
2018-08-25T21:39:59.681Z,101313.01
2018-08-25T21:42:29.588Z,101315.85
2018-08-25T21:44:59.567Z,101321.84
2018-08-25T21:47:29.425Z,101321.67
2018-08-25T21:49:59.396Z,101324.86
2018-08-25T21:52:29.440Z,101327.14
2018-08-25T21:55:00.248Z,101331.26
2018-08-25T21:57:30.579Z,101329.33
2018-08-25T22:00:00.889Z,101335.05
2018-08-25T22:02:30.870Z,101336.98
2018-08-25T22:05:02.107Z,101333.47
2018-08-25T22:07:32.143Z,101336.47
2018-08-25T22:10:02.853Z,101340.41
2018-08-25T22:12:32.728Z,101337.16
2018-08-25T22:15:02.701Z,101341.98
2018-08-25T22:17:32.652Z,101339.23
2018-08-25T22:20:03.051Z,101347.63
2018-08-25T22:22:33.081Z,101348.02
2018-08-25T22:25:03.171Z,101343.19
2018-08-25T22:27:33.160Z,101347.30
2018-08-25T22:30:03.236Z,101341.13
2018-08-25T22:32:33.147Z,101347.88
2018-08-25T22:35:03.975Z,101349.97
2018-08-25T22:37:34.053Z,101351.09
2018-08-25T22:40:03.908Z,101354.45
2018-08-25T22:42:33.848Z,101351.28
2018-08-25T22:45:03.883Z,101353.11
2018-08-25T22:47:34.012Z,101353.48
2018-08-25T22:50:03.977Z,101356.18
2018-08-25T22:52:39.045Z,101365.31
2018-08-25T22:55:08.929Z,101364.05
2018-08-25T22:57:38.925Z,101363.53
2018-08-25T23:00:09.092Z,101365.09
2018-08-25T23:02:40.870Z,101365.14
2018-08-25T23:05:11.271Z,101363.76
2018-08-25T23:07:41.404Z,101364.58
2018-08-25T23:10:11.527Z,101368.06
2018-08-25T23:12:41.552Z,101364.04
2018-08-25T23:15:11.517Z,101367.25
2018-08-25T23:17:41.749Z,101369.23
2018-08-25T23:20:11.820Z,101369.71
2018-08-25T23:22:41.878Z,101361.89
2018-08-25T23:25:11.961Z,101366.99
2018-08-25T23:27:42.072Z,101369.67
2018-08-25T23:30:11.945Z,101369.16
2018-08-25T23:32:41.895Z,101372.52
2018-08-25T23:35:11.854Z,101374.38
2018-08-25T23:37:41.802Z,101374.83
2018-08-25T23:40:11.752Z,101368.50
2018-08-25T23:42:42.415Z,101373.09
2018-08-25T23:45:12.287Z,101373.39
2018-08-25T23:47:42.242Z,101373.84
2018-08-25T23:50:12.601Z,101375.42
2018-08-25T23:52:42.946Z,101377.58
2018-08-25T23:55:13.519Z,101376.52
2018-08-25T23:57:43.500Z,101378.50
